createdAt,value
2018-06-11T00:00:11.954Z,81.38
2018-06-11T00:02:47.618Z,81.40
2018-06-11T00:05:23.267Z,81.68
2018-06-11T00:07:58.722Z,82.68
2018-06-11T00:10:34.988Z,82.77
2018-06-11T00:13:10.281Z,82.64
2018-06-11T00:15:46.093Z,83.85
2018-06-11T00:18:21.985Z,83.88
2018-06-11T00:20:57.776Z,82.46
2018-06-11T00:23:33.233Z,82.22
2018-06-11T00:26:09.057Z,82.20
2018-06-11T00:28:44.594Z,81.25
2018-06-11T00:31:20.342Z,81.61
2018-06-11T00:33:56.173Z,82.17
2018-06-11T00:36:32.111Z,82.98
2018-06-11T00:39:11.733Z,83.27
2018-06-11T00:41:47.445Z,83.30
2018-06-11T00:44:23.162Z,82.95
2018-06-11T00:46:58.839Z,83.12
2018-06-11T00:49:35.143Z,82.41
2018-06-11T00:52:10.912Z,83.42
2018-06-11T00:54:46.777Z,84.75
2018-06-11T00:57:22.253Z,84.56
2018-06-11T00:59:58.901Z,83.88
2018-06-11T01:02:34.145Z,82.75
2018-06-11T01:05:09.863Z,83.44
2018-06-11T01:07:45.921Z,83.25
2018-06-11T01:10:21.857Z,84.38
2018-06-11T01:12:57.172Z,84.05
2018-06-11T01:15:32.781Z,85.55
2018-06-11T01:18:08.669Z,86.23
2018-06-11T01:20:44.364Z,85.59
2018-06-11T01:23:19.929Z,85.18
2018-06-11T01:25:56.033Z,85.87
2018-06-11T01:28:31.579Z,85.64
2018-06-11T01:31:07.291Z,86.39
2018-06-11T01:33:42.827Z,85.99
2018-06-11T01:36:18.253Z,86.43
2018-06-11T01:38:54.062Z,85.67
2018-06-11T01:41:29.717Z,84.44
2018-06-11T01:44:05.457Z,85.90
2018-06-11T01:46:41.813Z,86.64
2018-06-11T01:49:17.835Z,87.92
2018-06-11T01:51:53.294Z,86.92
2018-06-11T01:54:28.843Z,86.23
2018-06-11T01:57:04.532Z,86.53
2018-06-11T01:59:40.529Z,87.37
2018-06-11T02:02:16.035Z,87.67
2018-06-11T02:04:51.743Z,87.69
2018-06-11T02:07:27.397Z,86.11
2018-06-11T02:10:03.169Z,85.64
2018-06-11T02:12:39.139Z,86.01
2018-06-11T02:15:14.891Z,86.12
2018-06-11T02:17:50.895Z,86.54
2018-06-11T02:20:26.373Z,86.42
2018-06-11T02:23:02.020Z,86.37
2018-06-11T02:25:37.765Z,86.87
2018-06-11T02:28:13.337Z,87.70
2018-06-11T02:30:49.011Z,87.38
2018-06-11T02:33:25.013Z,87.52
2018-06-11T02:36:00.337Z,88.22
2018-06-11T02:38:35.747Z,88.73
2018-06-11T02:41:11.448Z,89.23
2018-06-11T02:43:47.125Z,89.41
2018-06-11T02:46:22.652Z,89.94
2018-06-11T02:48:58.457Z,90.35
2018-06-11T02:51:33.925Z,90.95
2018-06-11T02:54:09.435Z,90.53
2018-06-11T02:56:44.901Z,91.48
2018-06-11T02:59:20.412Z,91.20
2018-06-11T03:01:56.276Z,92.08
2018-06-11T03:04:31.927Z,91.22
2018-06-11T03:07:07.494Z,92.14
2018-06-11T03:09:43.144Z,91.37
2018-06-11T03:12:18.680Z,92.09
2018-06-11T03:14:54.204Z,92.44
2018-06-11T03:17:29.673Z,92.51
2018-06-11T03:20:05.139Z,91.24
2018-06-11T03:22:40.971Z,90.35
2018-06-11T03:25:16.491Z,89.80
2018-06-11T03:27:52.166Z,89.47
2018-06-11T03:30:32.295Z,89.19
2018-06-11T03:33:08.136Z,88.83
2018-06-11T03:35:43.670Z,89.44
2018-06-11T03:38:19.200Z,89.12
2018-06-11T03:40:55.228Z,89.14
2018-06-11T03:43:30.936Z,89.03
2018-06-11T03:46:06.714Z,88.10
2018-06-11T03:48:42.694Z,89.38
2018-06-11T03:51:18.114Z,89.37
2018-06-11T03:53:53.908Z,89.24
2018-06-11T03:56:29.716Z,89.45
2018-06-11T03:59:05.321Z,89.95
2018-06-11T04:01:41.428Z,88.95
2018-06-11T04:04:17.220Z,87.67
2018-06-11T04:06:52.819Z,88.57
2018-06-11T04:09:28.215Z,89.14
2018-06-11T04:12:03.999Z,89.34
2018-06-11T04:14:39.578Z,87.84
2018-06-11T04:17:15.828Z,87.05
2018-06-11T04:19:51.276Z,87.47
2018-06-11T04:22:26.876Z,87.27
2018-06-11T04:25:02.878Z,87.99
2018-06-11T04:27:38.410Z,87.23
2018-06-11T04:30:14.172Z,87.50
2018-06-11T04:32:49.976Z,86.84
2018-06-11T04:35:26.303Z,85.90
2018-06-11T04:38:02.090Z,85.64
2018-06-11T04:40:37.810Z,85.56
2018-06-11T04:43:13.232Z,84.45
2018-06-11T04:45:48.790Z,83.86
2018-06-11T04:48:24.456Z,82.97
2018-06-11T04:51:00.231Z,82.35
2018-06-11T04:53:35.815Z,81.76
2018-06-11T04:56:11.643Z,81.80
2018-06-11T04:58:50.609Z,82.08
2018-06-11T05:01:26.551Z,81.35
2018-06-11T05:04:02.193Z,81.37
2018-06-11T05:06:38.490Z,80.12
2018-06-11T05:09:14.257Z,79.85
2018-06-11T05:11:50.215Z,79.60
2018-06-11T05:14:25.801Z,79.77
2018-06-11T05:17:01.760Z,79.53
2018-06-11T05:19:37.677Z,79.46
2018-06-11T05:22:14.006Z,79.23
2018-06-11T05:24:49.977Z,77.69
2018-06-11T05:27:26.018Z,78.72
2018-06-11T05:30:01.993Z,77.35
2018-06-11T05:32:40.818Z,75.24
2018-06-11T05:35:16.324Z,75.22
2018-06-11T05:37:52.147Z,74.43
2018-06-11T05:40:28.039Z,74.46
2018-06-11T05:43:03.925Z,74.16
2018-06-11T05:45:39.783Z,74.57
2018-06-11T05:48:15.755Z,74.52
2018-06-11T05:50:51.911Z,73.97
2018-06-11T05:53:28.265Z,73.42
2018-06-11T05:56:04.237Z,73.06
2018-06-11T05:58:40.464Z,72.12
2018-06-11T06:01:16.406Z,71.45
2018-06-11T06:03:52.741Z,71.07
2018-06-11T06:06:30.478Z,70.84
2018-06-11T06:09:09.188Z,68.60
2018-06-11T06:11:46.287Z,68.26
2018-06-11T06:14:22.835Z,66.63
2018-06-11T06:16:59.008Z,66.02
2018-06-11T06:19:36.450Z,64.73
2018-06-11T06:22:14.343Z,65.21
2018-06-11T06:24:51.695Z,63.86
2018-06-11T06:27:27.880Z,63.00
2018-06-11T06:30:03.727Z,62.44
2018-06-11T06:38:52.311Z,63.21
2018-06-11T06:41:53.050Z,63.39
2018-06-11T06:45:07.929Z,62.58
2018-06-11T06:51:12.379Z,61.29
2018-06-11T06:54:05.972Z,59.63
2018-06-11T06:56:56.097Z,59.48
2018-06-11T06:59:44.167Z,58.10
2018-06-11T07:02:32.200Z,58.02
2018-06-11T07:05:22.797Z,58.57
2018-06-11T07:08:05.777Z,57.09
2018-06-11T07:10:46.029Z,56.87
2018-06-11T07:13:25.311Z,56.33
2018-06-11T07:16:11.971Z,53.43
2018-06-11T07:18:52.477Z,53.73
2018-06-11T07:21:30.337Z,50.32
2018-06-11T07:24:12.642Z,49.30
2018-06-11T07:26:54.291Z,47.04
2018-06-11T07:29:30.973Z,46.62
2018-06-11T07:32:09.261Z,48.13
2018-06-11T07:34:46.906Z,47.64
2018-06-11T07:37:25.589Z,47.40
2018-06-11T07:40:02.530Z,46.83
2018-06-11T07:42:44.156Z,45.23
2018-06-11T07:45:22.484Z,47.12
2018-06-11T07:47:59.926Z,48.68
2018-06-11T07:50:38.722Z,46.58
2018-06-11T07:53:20.770Z,47.59
2018-06-11T07:55:57.703Z,46.62
2018-06-11T07:58:35.519Z,43.92
2018-06-11T08:01:11.827Z,44.63
2018-06-11T08:03:50.735Z,43.22
2018-06-11T08:06:27.520Z,41.18
2018-06-11T08:09:05.813Z,40.59
2018-06-11T08:11:43.883Z,38.77
2018-06-11T08:14:21.315Z,38.78
2018-06-11T08:16:58.306Z,40.13
2018-06-11T08:19:35.763Z,39.87
2018-06-11T08:22:11.970Z,39.88
2018-06-11T08:24:51.343Z,40.51
2018-06-11T08:27:28.195Z,42.92
2018-06-11T08:30:06.660Z,39.79
2018-06-11T08:32:44.277Z,38.92
2018-06-11T08:35:35.281Z,40.32
2018-06-11T08:38:14.922Z,38.25
2018-06-11T08:43:58.755Z,38.56
2018-06-11T08:47:10.387Z,37.20
2018-06-11T08:49:51.040Z,35.37
2018-06-11T08:52:38.404Z,35.59
2018-06-11T08:55:14.944Z,33.45
2018-06-11T08:57:53.470Z,32.83
2018-06-11T09:00:30.620Z,32.95
2018-06-11T09:03:31.662Z,32.07
2018-06-11T09:06:09.582Z,35.28
2018-06-11T09:08:51.106Z,35.37
2018-06-11T09:11:34.220Z,35.25
2018-06-11T09:14:14.659Z,35.46
2018-06-11T09:16:54.732Z,38.34
2018-06-11T09:19:35.258Z,37.40
2018-06-11T09:22:14.505Z,38.96
2018-06-11T09:25:07.917Z,38.34
2018-06-11T09:27:56.428Z,36.87
2018-06-11T09:30:38.770Z,37.81
2018-06-11T09:33:21.307Z,36.09
2018-06-11T09:36:08.549Z,36.62
2018-06-11T09:38:55.482Z,34.81
2018-06-11T09:41:35.370Z,34.33
2018-06-11T09:44:17.832Z,35.76
2018-06-11T09:46:54.418Z,36.62
2018-06-11T09:49:35.303Z,38.31
2018-06-11T09:52:13.926Z,38.64
2018-06-11T09:54:54.293Z,36.44
2018-06-11T09:57:31.111Z,37.54
2018-06-11T10:00:08.492Z,38.08
2018-06-11T10:02:45.666Z,37.73
2018-06-11T10:05:22.405Z,39.29
2018-06-11T10:07:59.552Z,39.16
2018-06-11T10:10:37.062Z,38.92
2018-06-11T10:13:16.310Z,39.23
2018-06-11T10:15:54.155Z,39.67
2018-06-11T10:18:31.741Z,38.88
2018-06-11T10:21:08.961Z,37.81
2018-06-11T10:23:45.892Z,37.38
2018-06-11T10:26:22.665Z,38.36
2018-06-11T10:28:58.805Z,37.74
2018-06-11T10:31:35.463Z,37.23
2018-06-11T10:34:13.717Z,35.70
2018-06-11T10:36:50.773Z,33.86
2018-06-11T10:39:26.817Z,30.45
2018-06-11T10:42:02.921Z,30.47
2018-06-11T10:44:41.943Z,31.16
2018-06-11T10:47:20.018Z,30.70
2018-06-11T10:49:56.889Z,31.55
2018-06-11T10:52:34.253Z,29.78
2018-06-11T10:55:11.851Z,29.83
2018-06-11T10:57:49.052Z,28.20
2018-06-11T11:00:26.074Z,28.81
2018-06-11T11:03:03.206Z,26.73
2018-06-11T11:05:39.853Z,24.99
2018-06-11T11:08:18.795Z,24.30
2018-06-11T11:11:02.647Z,25.36
2018-06-11T11:13:42.868Z,23.09
2018-06-11T11:16:20.571Z,23.53
2018-06-11T11:19:09.193Z,24.41
2018-06-11T11:21:49.848Z,24.21
2018-06-11T11:24:35.243Z,28.30
2018-06-11T11:27:16.043Z,28.94
2018-06-11T11:30:06.427Z,27.40
2018-06-11T11:33:00.557Z,24.67
2018-06-11T11:41:59.043Z,24.13
2018-06-11T12:07:25.213Z,20.61
2018-06-11T12:51:22.363Z,21.05
2018-06-11T12:54:44.261Z,19.12
2018-06-11T12:57:27.527Z,18.40
2018-06-11T13:03:14.601Z,22.56
2018-06-11T13:06:12.928Z,27.09
2018-06-11T13:09:20.571Z,31.52
2018-06-11T13:15:01.091Z,38.21
2018-06-11T13:24:07.500Z,41.76
2018-06-11T13:39:24.599Z,47.85
2018-06-11T13:42:09.637Z,47.67
2018-06-11T13:44:55.900Z,48.55
2018-06-11T13:47:43.030Z,48.62
2018-06-11T13:50:49.476Z,49.66
2018-06-11T13:56:54.057Z,50.53
2018-06-11T13:59:47.795Z,50.84
2018-06-11T14:02:32.604Z,49.47
2018-06-11T14:05:16.617Z,49.11
2018-06-11T14:10:58.426Z,50.32
2018-06-11T14:19:33.734Z,56.02
2018-06-11T14:22:16.927Z,58.01
2018-06-11T14:24:54.590Z,62.79
2018-06-11T14:30:18.217Z,67.59
2018-06-11T14:32:55.678Z,66.44
2018-06-11T14:35:34.352Z,66.58
2018-06-11T14:38:13.463Z,65.61
2018-06-11T14:40:50.893Z,64.33
2018-06-11T14:43:33.483Z,63.23
2018-06-11T14:46:10.090Z,63.77
2018-06-11T14:48:46.027Z,62.91
2018-06-11T14:51:28.557Z,61.87
2018-06-11T14:59:31.643Z,71.27
2018-06-11T15:02:15.190Z,73.83
2018-06-11T15:05:10.187Z,75.00
2018-06-11T15:07:48.766Z,75.00
2018-06-11T15:10:25.969Z,75.55
2018-06-11T15:13:04.093Z,77.32
2018-06-11T15:15:41.434Z,74.92
2018-06-11T15:18:20.416Z,69.18
2018-06-11T15:20:58.459Z,68.64
2018-06-11T15:23:35.388Z,70.20
2018-06-11T15:26:12.409Z,69.34
2018-06-11T15:28:49.860Z,67.81
2018-06-11T15:31:26.049Z,68.73
2018-06-11T15:34:02.723Z,67.00
2018-06-11T15:36:38.707Z,66.92
2018-06-11T15:39:15.087Z,68.17
2018-06-11T15:41:52.183Z,67.41
2018-06-11T15:44:32.517Z,66.91
2018-06-11T15:47:13.384Z,67.17
2018-06-11T15:52:51.551Z,66.95
2018-06-11T15:55:27.999Z,67.90
2018-06-11T15:58:09.384Z,66.94
2018-06-11T16:00:48.034Z,68.01
2018-06-11T16:03:28.708Z,68.13
2018-06-11T16:06:06.785Z,67.81
2018-06-11T16:08:45.251Z,67.95
2018-06-11T16:11:24.842Z,67.63
2018-06-11T16:14:01.109Z,68.34
2018-06-11T16:16:38.245Z,68.33
2018-06-11T16:19:22.170Z,68.54
2018-06-11T16:22:04.160Z,69.67
2018-06-11T16:24:41.618Z,72.27
2018-06-11T16:27:18.447Z,75.83
2018-06-11T16:29:54.410Z,79.18
2018-06-11T16:32:30.229Z,80.12
2018-06-11T16:35:05.982Z,85.52
2018-06-11T16:37:41.674Z,85.60
2018-06-11T16:40:17.274Z,83.00
2018-06-11T16:42:53.306Z,84.46
2018-06-11T16:45:29.171Z,87.66
2018-06-11T16:48:05.013Z,87.11
2018-06-11T16:50:40.701Z,86.31
2018-06-11T16:53:16.588Z,86.95
2018-06-11T16:55:52.926Z,87.55
2018-06-11T16:58:28.875Z,89.99
2018-06-11T17:01:04.309Z,91.75
2018-06-11T17:03:39.693Z,93.26
2018-06-11T17:06:15.263Z,94.30
2018-06-11T17:08:50.716Z,93.83
2018-06-11T17:11:26.391Z,93.67
2018-06-11T17:14:01.806Z,94.44
2018-06-11T17:16:37.321Z,94.59
2018-06-11T17:19:12.821Z,95.45
2018-06-11T17:21:48.291Z,94.91
2018-06-11T17:24:23.861Z,95.88
2018-06-11T17:26:59.530Z,96.15
2018-06-11T17:29:35.125Z,95.78
2018-06-11T17:32:11.428Z,95.51
2018-06-11T17:34:51.469Z,96.47
2018-06-11T17:37:28.256Z,94.79
2018-06-11T17:40:03.771Z,95.71
2018-06-11T17:42:39.178Z,95.19
2018-06-11T17:45:14.538Z,96.21
2018-06-11T17:47:50.012Z,96.62
2018-06-11T17:50:25.517Z,96.89
2018-06-11T17:53:01.123Z,96.86
2018-06-11T17:55:36.861Z,96.29
2018-06-11T17:58:12.821Z,95.41
2018-06-11T18:00:48.517Z,94.10
2018-06-11T18:03:24.872Z,93.54
2018-06-11T18:06:00.812Z,93.83
2018-06-11T18:08:36.337Z,95.53
2018-06-11T18:11:12.458Z,95.98
2018-06-11T18:13:48.661Z,97.12
2018-06-11T18:16:24.974Z,97.35
2018-06-11T18:19:00.830Z,96.58
2018-06-11T18:21:36.634Z,96.74
2018-06-11T18:24:12.647Z,96.37
2018-06-11T18:26:47.999Z,97.56
2018-06-11T18:29:24.431Z,96.75
2018-06-11T18:32:04.634Z,96.87
2018-06-11T18:34:59.180Z,97.71
2018-06-11T18:37:38.204Z,97.35
2018-06-11T18:40:16.237Z,97.41
2018-06-11T18:43:01.780Z,98.29
2018-06-11T18:45:53.918Z,97.72
2018-06-11T18:48:36.007Z,96.85
2018-06-11T18:51:18.481Z,96.82
2018-06-11T18:53:58.194Z,97.06
2018-06-11T18:56:37.229Z,97.44
2018-06-11T18:59:28.984Z,97.28
2018-06-11T19:02:39.268Z,96.67
2018-06-11T19:05:34.252Z,96.83
2018-06-11T19:08:16.036Z,97.74
2018-06-11T19:10:56.168Z,98.03
2018-06-11T19:13:35.929Z,97.44
2018-06-11T19:16:12.481Z,98.49
2018-06-11T19:19:12.401Z,99.10
2018-06-11T19:21:51.321Z,98.49
2018-06-11T19:24:27.925Z,97.98
2018-06-11T19:27:04.627Z,99.01
2018-06-11T19:29:42.281Z,98.57
2018-06-11T19:32:19.269Z,98.62
2018-06-11T19:35:01.057Z,98.77
2018-06-11T19:37:38.194Z,97.80
2018-06-11T19:40:18.200Z,99.35
2018-06-11T19:43:07.440Z,98.31
2018-06-11T19:45:50.699Z,98.72
2018-06-11T19:48:43.481Z,98.59
2018-06-11T19:51:36.198Z,98.06
2018-06-11T19:57:19.122Z,98.82
2018-06-11T20:03:07.766Z,99.43
2018-06-11T20:43:39.516Z,100.00
2018-06-11T20:46:17.410Z,99.92
2018-06-11T20:48:57.458Z,99.76
2018-06-11T20:51:35.629Z,99.79
2018-06-11T20:54:12.638Z,99.50
2018-06-11T20:56:49.563Z,100.00
2018-06-11T20:59:25.957Z,99.80
2018-06-11T21:02:02.233Z,100.00
2018-06-11T21:04:39.049Z,100.00
2018-06-11T21:07:17.164Z,99.85
2018-06-11T21:09:55.532Z,100.00
2018-06-11T21:12:31.758Z,99.65
2018-06-11T21:15:09.803Z,99.11
2018-06-11T21:17:46.801Z,100.00
2018-06-11T21:20:27.266Z,99.44
2018-06-11T21:23:03.976Z,99.64
2018-06-11T21:25:40.924Z,100.00
2018-06-11T21:28:18.681Z,100.00
2018-06-11T21:30:55.356Z,99.86
2018-06-11T21:33:33.243Z,100.00
2018-06-11T21:36:13.590Z,99.65
2018-06-11T21:38:51.978Z,99.32
2018-06-11T21:41:33.088Z,99.39
2018-06-11T21:44:11.544Z,98.61
2018-06-11T21:46:55.546Z,99.56
2018-06-11T21:49:35.176Z,99.17
2018-06-11T21:52:14.202Z,99.04
2018-06-11T21:54:51.079Z,99.63
2018-06-11T21:57:29.247Z,99.52
2018-06-11T22:00:07.885Z,99.50
2018-06-11T22:02:46.362Z,99.37
2018-06-11T22:05:23.113Z,99.52
2018-06-11T22:07:58.889Z,100.00
2018-06-11T22:10:35.158Z,100.00
2018-06-11T22:13:14.111Z,99.81
2018-06-11T22:15:50.855Z,100.00
2018-06-11T22:18:27.753Z,100.00
2018-06-11T22:21:04.414Z,100.00
2018-06-11T22:23:43.650Z,100.00
2018-06-11T22:26:22.250Z,100.00
2018-06-11T22:28:59.876Z,100.00
2018-06-11T22:31:37.066Z,100.00
2018-06-11T22:34:13.950Z,100.00
2018-06-11T22:36:50.786Z,100.00
2018-06-11T22:39:28.899Z,100.00
2018-06-11T22:42:06.370Z,100.00
2018-06-11T22:44:43.603Z,100.00
2018-06-11T22:47:24.843Z,100.00
2018-06-11T22:50:03.417Z,100.00
2018-06-11T22:52:40.865Z,100.00
2018-06-11T22:55:19.786Z,100.00
2018-06-11T22:57:58.242Z,100.00
2018-06-11T23:00:36.248Z,100.00
2018-06-11T23:03:13.876Z,100.00
2018-06-11T23:05:50.295Z,100.00
2018-06-11T23:08:27.549Z,100.00
2018-06-11T23:11:04.184Z,100.00
2018-06-11T23:13:40.044Z,100.00
2018-06-11T23:16:15.970Z,100.00
2018-06-11T23:18:51.620Z,100.00
2018-06-11T23:21:27.762Z,100.00
2018-06-11T23:24:04.088Z,100.00
2018-06-11T23:26:40.469Z,100.00
2018-06-11T23:29:19.167Z,100.00
2018-06-11T23:32:01.935Z,100.00
2018-06-11T23:34:40.758Z,100.00
2018-06-11T23:37:17.528Z,100.00
2018-06-11T23:39:55.237Z,100.00
2018-06-11T23:42:33.625Z,100.00
2018-06-11T23:45:10.822Z,100.00
2018-06-11T23:47:47.132Z,100.00
2018-06-11T23:50:28.058Z,100.00
2018-06-11T23:53:05.607Z,100.00
2018-06-11T23:55:42.150Z,100.00
2018-06-11T23:58:19.195Z,99.75
